DRRN/NIM METAR and TAF weather

Enter ICAO airport designator
Station Type Date Time Source
DRRN METAR 2018/09/21 23:00 UTC NOAA

DRRN 212300Z 20003KT 8000 FEW020CB 31/20 Q1010 TEMPO 12020KT 3500 TS BLDU


Station Type Date Time Source
DRRN Decoded METAR 2018/09/21 23:00 UTC NOAA

Niamey-Aero, Niger (DRRN) 13-29N 002-10E 227M
Sep 21, 2018 - 07:00 PM EDT / 2018.09.21 2300 UTC
Wind: from the SSW (200 degrees) at 3 MPH (3 KT):0
Visibility: 4 mile(s):0
Sky conditions: mostly clear
Weather: Cumulonimbus clouds observed
Temperature: 87 F (31 C)
Dew Point: 68 F (20 C)
Relative Humidity: 52%
Pressure (altimeter): 29.83 in. Hg (1010 hPa)
ob: DRRN 212300Z 20003KT 8000 FEW020CB 31/20 Q1010 TEMPO 12020KT 3500 TS BLDU
cycle: 23

Station Type Date Time Source
DRRN TAF 2018/09/21 00:21 UTC NOAA

TAF COR DRRN 212300Z 2200/2306 22006KT 9999 TS FEW030CB
BECMG 2200/2202 NSW PROB40
TEMPO 2220/2302 08020G30KT 1200 BLDU TSRA BKN020 FEW030CB


Example: see airport list